sensor_id;sensor_type;location;lat;lon;timestamp;P1;durP1;ratioP1;P2;durP2;ratioP2
10979;SDS011;5543;51.734;8.744;2022-10-15T00:01:33;2.58;;;2.28;;
10979;SDS011;5543;51.734;8.744;2022-10-15T00:04:01;3.22;;;2.40;;
10979;SDS011;5543;51.734;8.744;2022-10-15T00:06:30;6.30;;;2.40;;
10979;SDS011;5543;51.734;8.744;2022-10-15T00:09:00;2.30;;;2.10;;
10979;SDS011;5543;51.734;8.744;2022-10-15T00:11:28;2.53;;;2.20;;
10979;SDS011;5543;51.734;8.744;2022-10-15T00:13:57;3.10;;;2.35;;
10979;SDS011;5543;51.734;8.744;2022-10-15T00:16:29;3.35;;;2.42;;
10979;SDS011;5543;51.734;8.744;2022-10-15T00:18:59;4.30;;;2.33;;
10979;SDS011;5543;51.734;8.744;2022-10-15T00:21:27;3.80;;;2.30;;
10979;SDS011;5543;51.734;8.744;2022-10-15T00:23:56;2.53;;;2.20;;
10979;SDS011;5543;51.734;8.744;2022-10-15T00:26:26;2.85;;;2.08;;
10979;SDS011;5543;51.734;8.744;2022-10-15T00:28:56;3.15;;;2.50;;
10979;SDS011;5543;51.734;8.744;2022-10-15T00:31:27;3.47;;;2.38;;
10979;SDS011;5543;51.734;8.744;2022-10-15T00:33:58;2.10;;;1.90;;
10979;SDS011;5543;51.734;8.744;2022-10-15T00:36:28;6.70;;;2.88;;
10979;SDS011;5543;51.734;8.744;2022-10-15T00:38:58;5.35;;;3.67;;
10979;SDS011;5543;51.734;8.744;2022-10-15T00:41:28;2.88;;;2.17;;
10979;SDS011;5543;51.734;8.744;2022-10-15T00:43:59;4.30;;;2.42;;
10979;SDS011;5543;51.734;8.744;2022-10-15T00:46:29;3.33;;;2.40;;
10979;SDS011;5543;51.734;8.744;2022-10-15T00:49:02;3.95;;;2.65;;
10979;SDS011;5543;51.734;8.744;2022-10-15T00:51:40;3.38;;;2.17;;
10979;SDS011;5543;51.734;8.744;2022-10-15T00:54:11;3.40;;;2.50;;
10979;SDS011;5543;51.734;8.744;2022-10-15T00:56:42;4.95;;;2.97;;
10979;SDS011;5543;51.734;8.744;2022-10-15T00:59:12;2.95;;;2.53;;
10979;SDS011;5543;51.734;8.744;2022-10-15T01:01:42;4.00;;;2.60;;
10979;SDS011;5543;51.734;8.744;2022-10-15T01:04:10;3.78;;;2.75;;
10979;SDS011;5543;51.734;8.744;2022-10-15T01:06:38;3.67;;;2.65;;
10979;SDS011;5543;51.734;8.744;2022-10-15T01:09:07;5.50;;;2.75;;
10979;SDS011;5543;51.734;8.744;2022-10-15T01:11:37;4.18;;;2.90;;
10979;SDS011;5543;51.734;8.744;2022-10-15T01:14:14;4.07;;;2.97;;
10979;SDS011;5543;51.734;8.744;2022-10-15T01:16:54;2.92;;;2.45;;
10979;SDS011;5543;51.734;8.744;2022-10-15T01:19:34;6.43;;;3.60;;
10979;SDS011;5543;51.734;8.744;2022-10-15T01:22:35;4.75;;;3.20;;
10979;SDS011;5543;51.734;8.744;2022-10-15T01:25:19;5.07;;;3.00;;
10979;SDS011;5543;51.734;8.744;2022-10-15T01:27:56;4.75;;;2.67;;
10979;SDS011;5543;51.734;8.744;2022-10-15T01:30:37;4.00;;;3.05;;
10979;SDS011;5543;51.734;8.744;2022-10-15T01:33:11;5.55;;;3.42;;
10979;SDS011;5543;51.734;8.744;2022-10-15T01:35:53;5.05;;;3.90;;
10979;SDS011;5543;51.734;8.744;2022-10-15T01:38:32;3.80;;;3.08;;
10979;SDS011;5543;51.734;8.744;2022-10-15T01:41:07;3.58;;;2.83;;
10979;SDS011;5543;51.734;8.744;2022-10-15T01:43:39;4.82;;;2.85;;
10979;SDS011;5543;51.734;8.744;2022-10-15T01:46:15;4.65;;;2.83;;
10979;SDS011;5543;51.734;8.744;2022-10-15T01:48:45;5.47;;;3.53;;
10979;SDS011;5543;51.734;8.744;2022-10-15T01:51:15;7.25;;;3.35;;
10979;SDS011;5543;51.734;8.744;2022-10-15T01:53:45;4.20;;;3.05;;
10979;SDS011;5543;51.734;8.744;2022-10-15T01:56:14;3.60;;;3.05;;
10979;SDS011;5543;51.734;8.744;2022-10-15T01:58:46;4.20;;;3.53;;
10979;SDS011;5543;51.734;8.744;2022-10-15T02:01:18;3.38;;;2.88;;
10979;SDS011;5543;51.734;8.744;2022-10-15T02:03:47;5.30;;;3.30;;
10979;SDS011;5543;51.734;8.744;2022-10-15T02:06:18;5.53;;;3.40;;
10979;SDS011;5543;51.734;8.744;2022-10-15T02:11:39;4.20;;;3.25;;
10979;SDS011;5543;51.734;8.744;2022-10-15T02:14:18;3.50;;;2.55;;
10979;SDS011;5543;51.734;8.744;2022-10-15T02:16:55;4.03;;;2.83;;
10979;SDS011;5543;51.734;8.744;2022-10-15T02:19:29;4.43;;;2.55;;
10979;SDS011;5543;51.734;8.744;2022-10-15T02:22:06;3.03;;;2.65;;
10979;SDS011;5543;51.734;8.744;2022-10-15T02:24:39;3.03;;;2.65;;
10979;SDS011;5543;51.734;8.744;2022-10-15T02:27:09;3.67;;;2.75;;
10979;SDS011;5543;51.734;8.744;2022-10-15T02:29:40;3.10;;;2.50;;
10979;SDS011;5543;51.734;8.744;2022-10-15T02:32:11;3.72;;;2.45;;
10979;SDS011;5543;51.734;8.744;2022-10-15T02:34:41;4.97;;;2.60;;
10979;SDS011;5543;51.734;8.744;2022-10-15T02:37:12;4.60;;;2.88;;
10979;SDS011;5543;51.734;8.744;2022-10-15T02:39:41;3.70;;;2.88;;
10979;SDS011;5543;51.734;8.744;2022-10-15T02:42:10;3.55;;;2.90;;
10979;SDS011;5543;51.734;8.744;2022-10-15T02:44:38;3.60;;;2.80;;
10979;SDS011;5543;51.734;8.744;2022-10-15T02:47:06;3.88;;;2.38;;
10979;SDS011;5543;51.734;8.744;2022-10-15T02:49:36;12.40;;;3.08;;
10979;SDS011;5543;51.734;8.744;2022-10-15T02:52:04;3.15;;;2.65;;
10979;SDS011;5543;51.734;8.744;2022-10-15T02:54:33;3.92;;;2.47;;
10979;SDS011;5543;51.734;8.744;2022-10-15T02:57:01;3.72;;;2.60;;
10979;SDS011;5543;51.734;8.744;2022-10-15T02:59:29;3.88;;;2.67;;
10979;SDS011;5543;51.734;8.744;2022-10-15T03:01:57;3.78;;;2.65;;
10979;SDS011;5543;51.734;8.744;2022-10-15T03:04:25;2.97;;;2.47;;
10979;SDS011;5543;51.734;8.744;2022-10-15T03:06:54;3.63;;;2.53;;
10979;SDS011;5543;51.734;8.744;2022-10-15T03:09:22;3.47;;;2.60;;
10979;SDS011;5543;51.734;8.744;2022-10-15T03:11:50;7.43;;;2.80;;
10979;SDS011;5543;51.734;8.744;2022-10-15T03:14:18;3.78;;;2.60;;
10979;SDS011;5543;51.734;8.744;2022-10-15T03:16:46;3.83;;;2.47;;
10979;SDS011;5543;51.734;8.744;2022-10-15T03:19:14;3.97;;;2.65;;
10979;SDS011;5543;51.734;8.744;2022-10-15T03:21:42;3.63;;;2.63;;
10979;SDS011;5543;51.734;8.744;2022-10-15T03:24:11;3.97;;;3.00;;
10979;SDS011;5543;51.734;8.744;2022-10-15T03:26:40;3.92;;;2.47;;
10979;SDS011;5543;51.734;8.744;2022-10-15T03:29:08;4.90;;;3.03;;
10979;SDS011;5543;51.734;8.744;2022-10-15T03:31:36;2.60;;;2.22;;
10979;SDS011;5543;51.734;8.744;2022-10-15T03:34:04;2.55;;;2.20;;
10979;SDS011;5543;51.734;8.744;2022-10-15T03:36:32;4.47;;;2.78;;
10979;SDS011;5543;51.734;8.744;2022-10-15T03:39:00;3.30;;;2.80;;
10979;SDS011;5543;51.734;8.744;2022-10-15T03:41:29;4.25;;;2.58;;
10979;SDS011;5543;51.734;8.744;2022-10-15T03:43:59;4.75;;;3.47;;
10979;SDS011;5543;51.734;8.744;2022-10-15T03:46:28;3.95;;;2.40;;
10979;SDS011;5543;51.734;8.744;2022-10-15T03:48:56;3.50;;;2.45;;
10979;SDS011;5543;51.734;8.744;2022-10-15T03:51:24;3.47;;;2.80;;
10979;SDS011;5543;51.734;8.744;2022-10-15T03:53:56;5.10;;;3.05;;
10979;SDS011;5543;51.734;8.744;2022-10-15T03:56:24;3.50;;;2.42;;
10979;SDS011;5543;51.734;8.744;2022-10-15T03:58:54;3.10;;;2.80;;
10979;SDS011;5543;51.734;8.744;2022-10-15T04:01:22;6.82;;;3.67;;
10979;SDS011;5543;51.734;8.744;2022-10-15T04:03:50;5.82;;;4.05;;
10979;SDS011;5543;51.734;8.744;2022-10-15T04:06:19;5.35;;;3.28;;
10979;SDS011;5543;51.734;8.744;2022-10-15T04:08:47;5.78;;;3.65;;
10979;SDS011;5543;51.734;8.744;2022-10-15T04:11:15;8.95;;;4.63;;
10979;SDS011;5543;51.734;8.744;2022-10-15T04:13:46;8.10;;;3.90;;
10979;SDS011;5543;51.734;8.744;2022-10-15T04:16:16;4.93;;;3.42;;
10979;SDS011;5543;51.734;8.744;2022-10-15T04:18:44;5.70;;;4.03;;
10979;SDS011;5543;51.734;8.744;2022-10-15T04:21:12;7.28;;;4.30;;
10979;SDS011;5543;51.734;8.744;2022-10-15T04:23:40;5.22;;;3.90;;
10979;SDS011;5543;51.734;8.744;2022-10-15T04:26:08;5.88;;;4.20;;
10979;SDS011;5543;51.734;8.744;2022-10-15T04:28:37;7.03;;;4.43;;
10979;SDS011;5543;51.734;8.744;2022-10-15T04:31:05;6.68;;;4.65;;
10979;SDS011;5543;51.734;8.744;2022-10-15T04:33:34;5.43;;;4.13;;
10979;SDS011;5543;51.734;8.744;2022-10-15T04:36:03;5.57;;;3.22;;
10979;SDS011;5543;51.734;8.744;2022-10-15T04:38:33;7.03;;;4.03;;
10979;SDS011;5543;51.734;8.744;2022-10-15T04:41:02;7.03;;;4.30;;
10979;SDS011;5543;51.734;8.744;2022-10-15T04:43:31;7.32;;;4.28;;
10979;SDS011;5543;51.734;8.744;2022-10-15T04:46:00;9.32;;;4.43;;
10979;SDS011;5543;51.734;8.744;2022-10-15T04:48:31;7.00;;;4.70;;
10979;SDS011;5543;51.734;8.744;2022-10-15T04:51:07;8.65;;;4.32;;
10979;SDS011;5543;51.734;8.744;2022-10-15T04:53:36;7.88;;;5.32;;
10979;SDS011;5543;51.734;8.744;2022-10-15T04:56:06;8.57;;;5.40;;
10979;SDS011;5543;51.734;8.744;2022-10-15T04:58:37;8.27;;;4.93;;
10979;SDS011;5543;51.734;8.744;2022-10-15T05:01:05;10.60;;;4.85;;
10979;SDS011;5543;51.734;8.744;2022-10-15T05:03:37;7.53;;;4.85;;
10979;SDS011;5543;51.734;8.744;2022-10-15T05:06:12;5.35;;;3.88;;
10979;SDS011;5543;51.734;8.744;2022-10-15T05:08:41;8.25;;;5.15;;
10979;SDS011;5543;51.734;8.744;2022-10-15T05:11:10;7.75;;;4.68;;
10979;SDS011;5543;51.734;8.744;2022-10-15T05:13:41;6.63;;;4.10;;
10979;SDS011;5543;51.734;8.744;2022-10-15T05:16:10;5.85;;;4.20;;
10979;SDS011;5543;51.734;8.744;2022-10-15T05:18:40;6.68;;;3.42;;
10979;SDS011;5543;51.734;8.744;2022-10-15T05:21:09;6.35;;;4.18;;
10979;SDS011;5543;51.734;8.744;2022-10-15T05:23:39;5.63;;;4.07;;
10979;SDS011;5543;51.734;8.744;2022-10-15T05:26:10;6.95;;;4.43;;
10979;SDS011;5543;51.734;8.744;2022-10-15T05:28:38;8.02;;;4.75;;
10979;SDS011;5543;51.734;8.744;2022-10-15T05:31:07;6.53;;;4.43;;
10979;SDS011;5543;51.734;8.744;2022-10-15T05:33:43;6.40;;;3.95;;
10979;SDS011;5543;51.734;8.744;2022-10-15T05:36:13;10.07;;;5.25;;
10979;SDS011;5543;51.734;8.744;2022-10-15T05:38:44;8.93;;;4.97;;
10979;SDS011;5543;51.734;8.744;2022-10-15T05:41:13;7.65;;;4.43;;
10979;SDS011;5543;51.734;8.744;2022-10-15T05:43:42;7.43;;;4.60;;
10979;SDS011;5543;51.734;8.744;2022-10-15T05:46:12;7.68;;;4.75;;
10979;SDS011;5543;51.734;8.744;2022-10-15T05:48:40;7.43;;;4.10;;
10979;SDS011;5543;51.734;8.744;2022-10-15T05:51:09;6.65;;;4.72;;
10979;SDS011;5543;51.734;8.744;2022-10-15T05:53:38;9.38;;;4.65;;
10979;SDS011;5543;51.734;8.744;2022-10-15T05:56:09;6.65;;;4.43;;
10979;SDS011;5543;51.734;8.744;2022-10-15T05:58:38;7.68;;;4.82;;
10979;SDS011;5543;51.734;8.744;2022-10-15T06:01:07;5.47;;;3.83;;
10979;SDS011;5543;51.734;8.744;2022-10-15T06:03:37;9.23;;;4.55;;
10979;SDS011;5543;51.734;8.744;2022-10-15T06:06:11;7.28;;;4.88;;
10979;SDS011;5543;51.734;8.744;2022-10-15T06:08:40;13.40;;;5.15;;
10979;SDS011;5543;51.734;8.744;2022-10-15T06:11:10;10.32;;;5.68;;
10979;SDS011;5543;51.734;8.744;2022-10-15T06:13:38;13.38;;;7.07;;
10979;SDS011;5543;51.734;8.744;2022-10-15T06:16:07;9.90;;;5.65;;
10979;SDS011;5543;51.734;8.744;2022-10-15T06:18:36;14.55;;;6.07;;
10979;SDS011;5543;51.734;8.744;2022-10-15T06:21:05;9.23;;;5.63;;
10979;SDS011;5543;51.734;8.744;2022-10-15T06:23:34;11.00;;;5.43;;
10979;SDS011;5543;51.734;8.744;2022-10-15T06:26:02;13.32;;;6.75;;
10979;SDS011;5543;51.734;8.744;2022-10-15T06:28:32;10.23;;;5.72;;
10979;SDS011;5543;51.734;8.744;2022-10-15T06:31:02;13.45;;;6.25;;
10979;SDS011;5543;51.734;8.744;2022-10-15T06:33:31;15.07;;;7.65;;
10979;SDS011;5543;51.734;8.744;2022-10-15T06:35:59;13.70;;;5.65;;
10979;SDS011;5543;51.734;8.744;2022-10-15T06:38:28;14.90;;;6.18;;
10979;SDS011;5543;51.734;8.744;2022-10-15T06:40:56;10.55;;;5.95;;
10979;SDS011;5543;51.734;8.744;2022-10-15T06:43:25;21.92;;;7.07;;
10979;SDS011;5543;51.734;8.744;2022-10-15T06:45:59;13.30;;;7.25;;
10979;SDS011;5543;51.734;8.744;2022-10-15T06:48:27;17.17;;;7.50;;
10979;SDS011;5543;51.734;8.744;2022-10-15T06:50:56;15.82;;;6.70;;
10979;SDS011;5543;51.734;8.744;2022-10-15T06:53:24;16.38;;;7.85;;
10979;SDS011;5543;51.734;8.744;2022-10-15T06:55:54;13.35;;;5.97;;
10979;SDS011;5543;51.734;8.744;2022-10-15T06:58:23;12.65;;;7.78;;
10979;SDS011;5543;51.734;8.744;2022-10-15T07:00:51;13.20;;;6.35;;
10979;SDS011;5543;51.734;8.744;2022-10-15T07:03:21;18.45;;;8.63;;
10979;SDS011;5543;51.734;8.744;2022-10-15T07:05:49;13.32;;;7.18;;
10979;SDS011;5543;51.734;8.744;2022-10-15T07:08:17;16.92;;;8.27;;
10979;SDS011;5543;51.734;8.744;2022-10-15T07:10:45;16.52;;;6.68;;
10979;SDS011;5543;51.734;8.744;2022-10-15T07:13:13;18.33;;;8.52;;
10979;SDS011;5543;51.734;8.744;2022-10-15T07:15:41;14.10;;;7.25;;
10979;SDS011;5543;51.734;8.744;2022-10-15T07:18:11;15.23;;;7.43;;
10979;SDS011;5543;51.734;8.744;2022-10-15T07:20:41;14.35;;;7.35;;
10979;SDS011;5543;51.734;8.744;2022-10-15T07:23:09;13.50;;;7.95;;
10979;SDS011;5543;51.734;8.744;2022-10-15T07:25:37;14.15;;;7.53;;
10979;SDS011;5543;51.734;8.744;2022-10-15T07:28:05;17.70;;;7.70;;
10979;SDS011;5543;51.734;8.744;2022-10-15T07:30:33;12.20;;;6.60;;
10979;SDS011;5543;51.734;8.744;2022-10-15T07:33:01;14.77;;;7.32;;
10979;SDS011;5543;51.734;8.744;2022-10-15T07:35:30;17.38;;;7.90;;
10979;SDS011;5543;51.734;8.744;2022-10-15T07:38:00;13.77;;;8.52;;
10979;SDS011;5543;51.734;8.744;2022-10-15T07:40:29;18.02;;;8.70;;
10979;SDS011;5543;51.734;8.744;2022-10-15T07:42:57;13.82;;;8.23;;
10979;SDS011;5543;51.734;8.744;2022-10-15T07:45:26;15.80;;;7.55;;
10979;SDS011;5543;51.734;8.744;2022-10-15T07:47:54;17.70;;;8.98;;
10979;SDS011;5543;51.734;8.744;2022-10-15T07:50:22;12.02;;;7.13;;
10979;SDS011;5543;51.734;8.744;2022-10-15T07:52:55;13.48;;;7.97;;
10979;SDS011;5543;51.734;8.744;2022-10-15T07:55:25;11.60;;;7.47;;
10979;SDS011;5543;51.734;8.744;2022-10-15T07:57:55;13.45;;;7.90;;
10979;SDS011;5543;51.734;8.744;2022-10-15T08:00:23;10.30;;;6.53;;
10979;SDS011;5543;51.734;8.744;2022-10-15T08:02:51;11.40;;;7.00;;
10979;SDS011;5543;51.734;8.744;2022-10-15T08:05:20;12.10;;;6.80;;
10979;SDS011;5543;51.734;8.744;2022-10-15T08:07:48;10.65;;;7.03;;
10979;SDS011;5543;51.734;8.744;2022-10-15T08:10:16;9.95;;;5.55;;
10979;SDS011;5543;51.734;8.744;2022-10-15T08:12:46;15.73;;;6.05;;
10979;SDS011;5543;51.734;8.744;2022-10-15T08:15:14;6.72;;;5.28;;
10979;SDS011;5543;51.734;8.744;2022-10-15T08:17:43;7.00;;;4.07;;
10979;SDS011;5543;51.734;8.744;2022-10-15T08:20:11;6.72;;;4.07;;
10979;SDS011;5543;51.734;8.744;2022-10-15T08:22:39;5.00;;;3.70;;
10979;SDS011;5543;51.734;8.744;2022-10-15T08:25:07;4.57;;;4.05;;
10979;SDS011;5543;51.734;8.744;2022-10-15T08:27:36;5.15;;;3.78;;
10979;SDS011;5543;51.734;8.744;2022-10-15T08:30:06;5.18;;;3.90;;
10979;SDS011;5543;51.734;8.744;2022-10-15T08:32:35;6.40;;;4.57;;
10979;SDS011;5543;51.734;8.744;2022-10-15T08:35:03;7.07;;;3.65;;
10979;SDS011;5543;51.734;8.744;2022-10-15T08:37:32;4.70;;;3.55;;
10979;SDS011;5543;51.734;8.744;2022-10-15T08:40:00;5.55;;;3.70;;
10979;SDS011;5543;51.734;8.744;2022-10-15T08:42:30;5.95;;;3.83;;
10979;SDS011;5543;51.734;8.744;2022-10-15T08:45:02;4.22;;;3.22;;
10979;SDS011;5543;51.734;8.744;2022-10-15T08:47:35;5.25;;;4.00;;
10979;SDS011;5543;51.734;8.744;2022-10-15T08:50:10;5.18;;;3.67;;
10979;SDS011;5543;51.734;8.744;2022-10-15T08:52:45;4.75;;;3.20;;
10979;SDS011;5543;51.734;8.744;2022-10-15T08:55:16;8.05;;;3.17;;
10979;SDS011;5543;51.734;8.744;2022-10-15T08:57:47;4.43;;;3.15;;
10979;SDS011;5543;51.734;8.744;2022-10-15T09:00:20;4.30;;;3.33;;
10979;SDS011;5543;51.734;8.744;2022-10-15T09:02:53;4.53;;;3.47;;
10979;SDS011;5543;51.734;8.744;2022-10-15T09:05:32;4.03;;;3.13;;
10979;SDS011;5543;51.734;8.744;2022-10-15T09:08:12;4.70;;;3.00;;
10979;SDS011;5543;51.734;8.744;2022-10-15T09:10:47;4.70;;;3.58;;
10979;SDS011;5543;51.734;8.744;2022-10-15T09:13:21;4.07;;;3.20;;
10979;SDS011;5543;51.734;8.744;2022-10-15T09:15:54;3.85;;;3.38;;
10979;SDS011;5543;51.734;8.744;2022-10-15T09:18:28;3.83;;;3.33;;
10979;SDS011;5543;51.734;8.744;2022-10-15T09:20:59;4.18;;;3.53;;
10979;SDS011;5543;51.734;8.744;2022-10-15T09:23:31;3.75;;;2.78;;
10979;SDS011;5543;51.734;8.744;2022-10-15T09:26:01;4.63;;;2.72;;
10979;SDS011;5543;51.734;8.744;2022-10-15T09:28:37;3.90;;;2.75;;
10979;SDS011;5543;51.734;8.744;2022-10-15T09:31:10;3.58;;;2.95;;
10979;SDS011;5543;51.734;8.744;2022-10-15T09:33:46;3.20;;;2.90;;
10979;SDS011;5543;51.734;8.744;2022-10-15T09:36:24;4.28;;;2.78;;
10979;SDS011;5543;51.734;8.744;2022-10-15T09:39:02;3.47;;;3.17;;
10979;SDS011;5543;51.734;8.744;2022-10-15T09:41:41;4.07;;;3.15;;
10979;SDS011;5543;51.734;8.744;2022-10-15T09:44:20;4.55;;;3.45;;
10979;SDS011;5543;51.734;8.744;2022-10-15T09:46:51;4.00;;;2.63;;
10979;SDS011;5543;51.734;8.744;2022-10-15T09:49:21;3.22;;;2.78;;
10979;SDS011;5543;51.734;8.744;2022-10-15T09:51:59;3.83;;;2.60;;
10979;SDS011;5543;51.734;8.744;2022-10-15T09:54:34;5.43;;;2.78;;
10979;SDS011;5543;51.734;8.744;2022-10-15T09:57:11;3.47;;;2.45;;
10979;SDS011;5543;51.734;8.744;2022-10-15T09:59:50;4.43;;;3.30;;
10979;SDS011;5543;51.734;8.744;2022-10-15T10:02:22;4.47;;;3.17;;
10979;SDS011;5543;51.734;8.744;2022-10-15T10:04:54;2.67;;;2.13;;
10979;SDS011;5543;51.734;8.744;2022-10-15T10:07:29;3.67;;;2.85;;
10979;SDS011;5543;51.734;8.744;2022-10-15T10:10:00;2.63;;;2.35;;
10979;SDS011;5543;51.734;8.744;2022-10-15T10:12:31;5.88;;;2.67;;
10979;SDS011;5543;51.734;8.744;2022-10-15T10:15:03;2.90;;;2.15;;
10979;SDS011;5543;51.734;8.744;2022-10-15T10:17:35;4.78;;;2.97;;
10979;SDS011;5543;51.734;8.744;2022-10-15T10:20:16;3.20;;;2.42;;
10979;SDS011;5543;51.734;8.744;2022-10-15T10:22:46;3.47;;;2.50;;
10979;SDS011;5543;51.734;8.744;2022-10-15T10:25:22;4.25;;;2.72;;
10979;SDS011;5543;51.734;8.744;2022-10-15T10:27:57;3.17;;;2.55;;
10979;SDS011;5543;51.734;8.744;2022-10-15T10:30:31;5.50;;;2.85;;
10979;SDS011;5543;51.734;8.744;2022-10-15T10:33:02;3.47;;;1.98;;
10979;SDS011;5543;51.734;8.744;2022-10-15T10:35:34;2.42;;;1.90;;
10979;SDS011;5543;51.734;8.744;2022-10-15T10:38:19;2.15;;;1.95;;
10979;SDS011;5543;51.734;8.744;2022-10-15T10:40:49;1.88;;;1.42;;
10979;SDS011;5543;51.734;8.744;2022-10-15T10:43:20;1.98;;;1.38;;
10979;SDS011;5543;51.734;8.744;2022-10-15T10:45:55;1.48;;;1.20;;
10979;SDS011;5543;51.734;8.744;2022-10-15T10:48:26;2.00;;;1.30;;
10979;SDS011;5543;51.734;8.744;2022-10-15T10:51:04;1.55;;;1.45;;
10979;SDS011;5543;51.734;8.744;2022-10-15T10:53:46;3.85;;;1.63;;
10979;SDS011;5543;51.734;8.744;2022-10-15T10:56:17;2.28;;;1.60;;
10979;SDS011;5543;51.734;8.744;2022-10-15T10:58:54;1.50;;;1.30;;
10979;SDS011;5543;51.734;8.744;2022-10-15T11:01:25;1.27;;;1.10;;
10979;SDS011;5543;51.734;8.744;2022-10-15T11:03:54;1.17;;;1.08;;
10979;SDS011;5543;51.734;8.744;2022-10-15T11:06:30;1.52;;;1.42;;
10979;SDS011;5543;51.734;8.744;2022-10-15T11:09:09;1.35;;;1.25;;
10979;SDS011;5543;51.734;8.744;2022-10-15T11:11:54;1.10;;;1.05;;
10979;SDS011;5543;51.734;8.744;2022-10-15T11:14:31;0.98;;;0.98;;
10979;SDS011;5543;51.734;8.744;2022-10-15T11:17:11;1.48;;;0.95;;
10979;SDS011;5543;51.734;8.744;2022-10-15T11:19:49;1.88;;;1.50;;
10979;SDS011;5543;51.734;8.744;2022-10-15T11:22:46;0.80;;;0.80;;
10979;SDS011;5543;51.734;8.744;2022-10-15T11:25:28;0.80;;;0.80;;
10979;SDS011;5543;51.734;8.744;2022-10-15T11:28:05;1.08;;;0.95;;
10979;SDS011;5543;51.734;8.744;2022-10-15T11:30:48;1.30;;;1.20;;
10979;SDS011;5543;51.734;8.744;2022-10-15T11:33:24;1.33;;;1.20;;
10979;SDS011;5543;51.734;8.744;2022-10-15T11:36:19;0.90;;;0.90;;
10979;SDS011;5543;51.734;8.744;2022-10-15T11:38:59;0.63;;;0.63;;
10979;SDS011;5543;51.734;8.744;2022-10-15T11:41:50;0.90;;;0.90;;
10979;SDS011;5543;51.734;8.744;2022-10-15T11:44:31;0.80;;;0.77;;
10979;SDS011;5543;51.734;8.744;2022-10-15T11:47:26;0.93;;;0.93;;
10979;SDS011;5543;51.734;8.744;2022-10-15T11:50:07;1.40;;;1.10;;
10979;SDS011;5543;51.734;8.744;2022-10-15T11:52:49;1.00;;;0.90;;
10979;SDS011;5543;51.734;8.744;2022-10-15T11:55:30;1.00;;;0.90;;
10979;SDS011;5543;51.734;8.744;2022-10-15T11:58:07;0.80;;;0.80;;
10979;SDS011;5543;51.734;8.744;2022-10-15T12:00:41;0.90;;;0.90;;
10979;SDS011;5543;51.734;8.744;2022-10-15T12:03:14;1.20;;;1.10;;
10979;SDS011;5543;51.734;8.744;2022-10-15T12:05:47;0.85;;;0.85;;
10979;SDS011;5543;51.734;8.744;2022-10-15T12:08:17;1.02;;;1.00;;
10979;SDS011;5543;51.734;8.744;2022-10-15T12:10:54;0.73;;;0.73;;
10979;SDS011;5543;51.734;8.744;2022-10-15T12:13:33;0.60;;;0.60;;
10979;SDS011;5543;51.734;8.744;2022-10-15T12:16:10;1.33;;;1.23;;
10979;SDS011;5543;51.734;8.744;2022-10-15T12:18:48;0.70;;;0.70;;
10979;SDS011;5543;51.734;8.744;2022-10-15T12:21:28;0.70;;;0.70;;
10979;SDS011;5543;51.734;8.744;2022-10-15T12:23:58;0.85;;;0.85;;
10979;SDS011;5543;51.734;8.744;2022-10-15T12:26:29;0.55;;;0.55;;
10979;SDS011;5543;51.734;8.744;2022-10-15T12:28:59;0.70;;;0.70;;
10979;SDS011;5543;51.734;8.744;2022-10-15T12:31:42;0.60;;;0.60;;
10979;SDS011;5543;51.734;8.744;2022-10-15T12:37:03;0.60;;;0.60;;
10979;SDS011;5543;51.734;8.744;2022-10-15T12:39:35;0.70;;;0.70;;
10979;SDS011;5543;51.734;8.744;2022-10-15T12:42:26;0.73;;;0.73;;
10979;SDS011;5543;51.734;8.744;2022-10-15T12:44:57;0.82;;;0.82;;
10979;SDS011;5543;51.734;8.744;2022-10-15T12:50:22;0.70;;;0.70;;
10979;SDS011;5543;51.734;8.744;2022-10-15T12:52:59;0.85;;;0.85;;
10979;SDS011;5543;51.734;8.744;2022-10-15T12:55:32;5.45;;;2.70;;
10979;SDS011;5543;51.734;8.744;2022-10-15T12:58:29;0.80;;;0.80;;
10979;SDS011;5543;51.734;8.744;2022-10-15T13:01:02;0.77;;;0.77;;
10979;SDS011;5543;51.734;8.744;2022-10-15T13:03:34;0.80;;;0.80;;
10979;SDS011;5543;51.734;8.744;2022-10-15T13:06:14;0.80;;;0.80;;
10979;SDS011;5543;51.734;8.744;2022-10-15T13:08:52;4.05;;;3.65;;
10979;SDS011;5543;51.734;8.744;2022-10-15T13:11:25;1.30;;;1.20;;
10979;SDS011;5543;51.734;8.744;2022-10-15T13:13:58;0.90;;;0.90;;
10979;SDS011;5543;51.734;8.744;2022-10-15T13:16:28;0.77;;;0.77;;
10979;SDS011;5543;51.734;8.744;2022-10-15T13:18:57;0.65;;;0.65;;
10979;SDS011;5543;51.734;8.744;2022-10-15T13:24:19;3.80;;;1.10;;
10979;SDS011;5543;51.734;8.744;2022-10-15T13:26:49;0.80;;;0.80;;
10979;SDS011;5543;51.734;8.744;2022-10-15T13:29:20;0.70;;;0.70;;
10979;SDS011;5543;51.734;8.744;2022-10-15T13:31:50;2.60;;;0.70;;
10979;SDS011;5543;51.734;8.744;2022-10-15T13:34:23;0.70;;;0.70;;
10979;SDS011;5543;51.734;8.744;2022-10-15T13:36:54;1.25;;;0.90;;
10979;SDS011;5543;51.734;8.744;2022-10-15T13:39:26;0.80;;;0.80;;
10979;SDS011;5543;51.734;8.744;2022-10-15T13:42:06;0.82;;;0.82;;
10979;SDS011;5543;51.734;8.744;2022-10-15T13:44:37;0.98;;;0.70;;
10979;SDS011;5543;51.734;8.744;2022-10-15T13:47:25;0.60;;;0.60;;
10979;SDS011;5543;51.734;8.744;2022-10-15T13:50:10;0.65;;;0.65;;
10979;SDS011;5543;51.734;8.744;2022-10-15T13:52:39;0.65;;;0.65;;
10979;SDS011;5543;51.734;8.744;2022-10-15T13:55:12;0.63;;;0.63;;
10979;SDS011;5543;51.734;8.744;2022-10-15T13:57:44;0.70;;;0.70;;
10979;SDS011;5543;51.734;8.744;2022-10-15T14:00:20;0.50;;;0.50;;
10979;SDS011;5543;51.734;8.744;2022-10-15T14:03:06;0.70;;;0.70;;
10979;SDS011;5543;51.734;8.744;2022-10-15T14:05:38;0.60;;;0.60;;
10979;SDS011;5543;51.734;8.744;2022-10-15T14:08:13;0.60;;;0.60;;
10979;SDS011;5543;51.734;8.744;2022-10-15T14:10:43;0.80;;;0.80;;
10979;SDS011;5543;51.734;8.744;2022-10-15T14:13:19;0.50;;;0.50;;
10979;SDS011;5543;51.734;8.744;2022-10-15T14:15:50;0.50;;;0.50;;
10979;SDS011;5543;51.734;8.744;2022-10-15T14:18:30;0.60;;;0.60;;
10979;SDS011;5543;51.734;8.744;2022-10-15T14:21:01;1.08;;;1.08;;
10979;SDS011;5543;51.734;8.744;2022-10-15T14:23:30;0.90;;;0.68;;
10979;SDS011;5543;51.734;8.744;2022-10-15T14:25:58;0.88;;;0.88;;
10979;SDS011;5543;51.734;8.744;2022-10-15T14:28:29;0.60;;;0.60;;
10979;SDS011;5543;51.734;8.744;2022-10-15T14:31:00;0.60;;;0.60;;
10979;SDS011;5543;51.734;8.744;2022-10-15T14:33:33;0.70;;;0.70;;
10979;SDS011;5543;51.734;8.744;2022-10-15T14:38:52;0.60;;;0.60;;
10979;SDS011;5543;51.734;8.744;2022-10-15T14:41:22;0.70;;;0.70;;
10979;SDS011;5543;51.734;8.744;2022-10-15T14:43:59;2.25;;;0.60;;
10979;SDS011;5543;51.734;8.744;2022-10-15T14:46:39;0.57;;;0.57;;
10979;SDS011;5543;51.734;8.744;2022-10-15T14:49:18;0.70;;;0.70;;
10979;SDS011;5543;51.734;8.744;2022-10-15T14:51:57;0.60;;;0.60;;
10979;SDS011;5543;51.734;8.744;2022-10-15T14:54:33;0.60;;;0.60;;
10979;SDS011;5543;51.734;8.744;2022-10-15T14:57:04;0.90;;;0.90;;
10979;SDS011;5543;51.734;8.744;2022-10-15T14:59:41;0.60;;;0.60;;
10979;SDS011;5543;51.734;8.744;2022-10-15T15:02:12;0.70;;;0.70;;
10979;SDS011;5543;51.734;8.744;2022-10-15T15:04:43;0.60;;;0.60;;
10979;SDS011;5543;51.734;8.744;2022-10-15T15:07:14;0.70;;;0.70;;
10979;SDS011;5543;51.734;8.744;2022-10-15T15:09:48;0.60;;;0.60;;
10979;SDS011;5543;51.734;8.744;2022-10-15T15:12:18;0.50;;;0.50;;
10979;SDS011;5543;51.734;8.744;2022-10-15T15:14:53;0.90;;;0.90;;
10979;SDS011;5543;51.734;8.744;2022-10-15T15:17:23;0.57;;;0.57;;
10979;SDS011;5543;51.734;8.744;2022-10-15T15:19:53;0.52;;;0.52;;
10979;SDS011;5543;51.734;8.744;2022-10-15T15:22:26;1.25;;;0.70;;
10979;SDS011;5543;51.734;8.744;2022-10-15T15:24:57;0.60;;;0.60;;
10979;SDS011;5543;51.734;8.744;2022-10-15T15:27:28;1.25;;;0.80;;
10979;SDS011;5543;51.734;8.744;2022-10-15T15:30:02;0.73;;;0.60;;
10979;SDS011;5543;51.734;8.744;2022-10-15T15:32:34;0.70;;;0.70;;
10979;SDS011;5543;51.734;8.744;2022-10-15T15:35:04;0.65;;;0.65;;
10979;SDS011;5543;51.734;8.744;2022-10-15T15:37:49;0.60;;;0.60;;
10979;SDS011;5543;51.734;8.744;2022-10-15T15:40:18;0.80;;;0.80;;
10979;SDS011;5543;51.734;8.744;2022-10-15T15:42:46;0.80;;;0.80;;
10979;SDS011;5543;51.734;8.744;2022-10-15T15:45:17;0.60;;;0.60;;